Time;durP1;ratioP1;P1;durP2;ratioP2;P2;SDS_P1;SDS_P2;PMS_P1;PMS_P2;Temp;Humidity;BMP_temperature;BMP_pressure;BME280_temperature;BME280_humidity;BME280_pressure;Samples;Min_cycle;Max_cycle;Signal;HPM_P1;HPM_P2
2022/10/30 00:01:13;;;;;;;8.68;5.50;;;;;;;19.94;60.82;101611.13;5064176;28;20149;-61
2022/10/30 00:03:38;;;;;;;6.95;4.68;;;;;;;19.93;60.89;101609.44;5064543;28;20044;-62
2022/10/30 00:06:05;;;;;;;8.07;4.90;;;;;;;19.92;60.90;101611.31;5063933;28;20040;-62
2022/10/30 00:08:30;;;;;;;8.80;5.07;;;;;;;19.84;60.81;101592.34;5064153;28;20093;-62
2022/10/30 00:10:55;;;;;;;8.77;5.28;;;;;;;19.86;60.89;101598.44;5064225;28;20025;-62
2022/10/30 00:13:21;;;;;;;7.70;4.90;;;;;;;19.92;60.82;101605.03;5058179;28;20032;-63
2022/10/30 00:15:51;;;;;;;8.68;5.45;;;;;;;19.91;60.70;101611.44;5044060;28;20033;-62
2022/10/30 00:18:16;;;;;;;10.43;5.95;;;;;;;19.91;60.78;101601.50;5044341;28;20081;-62
2022/10/30 00:20:42;;;;;;;6.60;4.80;;;;;;;19.91;60.67;101603.34;5043651;28;20059;-61
2022/10/30 00:23:07;;;;;;;8.18;5.45;;;;;;;19.90;60.84;101607.06;5052868;28;20031;-62
2022/10/30 00:25:34;;;;;;;7.60;4.80;;;;;;;19.90;60.62;101609.75;5064113;28;20444;-62
2022/10/30 00:27:59;;;;;;;6.85;4.38;;;;;;;19.89;60.88;101608.91;5063420;28;20486;-62
2022/10/30 00:30:24;;;;;;;9.40;6.10;;;;;;;19.85;60.75;101601.28;5063404;28;20143;-62
2022/10/30 00:32:49;;;;;;;7.10;4.63;;;;;;;19.89;61.00;101610.78;5064053;28;20363;-62
2022/10/30 00:35:15;;;;;;;8.90;4.45;;;;;;;19.88;60.87;101618.03;5063715;28;20111;-62
2022/10/30 00:37:40;;;;;;;6.63;4.70;;;;;;;19.88;60.95;101607.22;5063134;28;20024;-62
2022/10/30 00:40:06;;;;;;;7.50;5.25;;;;;;;19.88;60.64;101604.53;5063928;28;20084;-62
2022/10/30 00:42:31;;;;;;;7.32;4.70;;;;;;;19.87;61.01;101605.50;5063462;28;20016;-62
2022/10/30 00:44:56;;;;;;;9.85;5.47;;;;;;;19.86;60.66;101603.81;5063770;28;20036;-62
2022/10/30 00:47:32;;;;;;;8.73;5.20;;;;;;;19.86;60.50;101601.13;5063537;28;20130;-62
2022/10/30 00:50:17;;;;;;;8.38;5.15;;;;;;;19.86;60.69;101603.81;5062708;28;20066;-62
2022/10/30 00:53:03;;;;;;;7.35;4.82;;;;;;;19.72;60.85;101585.53;5062993;28;20092;-63
2022/10/30 00:55:32;;;;;;;6.80;4.70;;;;;;;19.84;60.97;101605.84;5062626;28;20025;-62
2022/10/30 00:58:00;;;;;;;7.88;4.35;;;;;;;19.85;60.62;101614.78;5061978;28;20020;-63
2022/10/30 01:00:26;;;;;;;7.93;4.30;;;;;;;19.83;60.77;101609.53;5063638;28;20040;-64
2022/10/30 01:02:52;;;;;;;6.20;4.00;;;;;;;19.83;60.63;101609.53;5063469;28;20029;-63
2022/10/30 01:05:19;;;;;;;8.85;5.50;;;;;;;19.84;60.62;101605.00;5062105;28;20054;-63
2022/10/30 01:07:44;;;;;;;5.55;4.40;;;;;;;19.82;60.52;101609.69;5062145;28;20029;-63
2022/10/30 01:10:11;;;;;;;8.70;4.32;;;;;;;19.82;60.43;101605.13;5063596;28;20064;-62
2022/10/30 01:12:37;;;;;;;10.15;6.00;;;;;;;19.33;60.38;101534.63;5063070;28;20035;-62
2022/10/30 01:15:02;;;;;;;8.40;4.80;;;;;;;19.81;60.76;101600.75;5062328;28;20060;-62
2022/10/30 01:17:49;;;;;;;7.35;4.63;;;;;;;19.81;60.67;101611.56;5063431;28;20096;-62
2022/10/30 01:20:30;;;;;;;8.00;4.50;;;;;;;19.81;60.64;101613.41;5063559;28;20477;-62
2022/10/30 01:23:13;;;;;;;7.70;4.50;;;;;;;19.80;60.74;101603.63;5062831;28;20076;-62
2022/10/30 01:25:51;;;;;;;7.72;4.63;;;;;;;19.68;60.81;101589.53;5063228;28;20041;-62
2022/10/30 01:28:24;;;;;;;6.20;4.15;;;;;;;19.80;60.80;101603.63;5061716;28;20103;-62
2022/10/30 01:30:58;;;;;;;7.68;5.10;;;;;;;19.79;60.53;101608.16;5062135;28;20086;-62
2022/10/30 01:33:35;;;;;;;6.40;4.20;;;;;;;19.78;60.48;101614.56;5063042;28;20059;-62
2022/10/30 01:36:26;;;;;;;5.30;3.88;;;;;;;19.78;60.54;101619.09;5061400;28;20033;-62
2022/10/30 01:38:59;;;;;;;5.68;3.67;;;;;;;19.78;60.39;101624.50;5061944;28;20013;-62
2022/10/30 01:41:24;;;;;;;6.43;4.20;;;;;;;19.74;60.46;101618.56;5062343;28;20033;-61
2022/10/30 01:43:54;;;;;;;9.82;4.80;;;;;;;19.77;60.38;101628.22;5066920;28;20040;-62
2022/10/30 01:46:44;;;;;;;6.35;4.25;;;;;;;19.76;60.51;101624.66;5067238;28;20104;-62
2022/10/30 01:49:40;;;;;;;7.20;4.43;;;;;;;19.75;60.64;101628.34;5067204;28;20025;-62
2022/10/30 01:52:15;;;;;;;6.00;4.07;;;;;;;19.75;60.69;101627.50;5065254;28;20035;-62
2022/10/30 01:54:48;;;;;;;7.32;4.35;;;;;;;19.73;60.40;101617.72;5065913;28;20029;-62
2022/10/30 01:57:57;;;;;;;8.23;4.85;;;;;;;19.74;60.65;101623.97;5066332;28;20448;-62
2022/10/30 02:00:23;;;;;;;6.53;4.25;;;;;;;19.72;60.50;101621.44;5053215;28;20041;-62
2022/10/30 02:02:49;;;;;;;6.13;4.55;;;;;;;19.69;60.61;101607.41;5065460;28;20107;-62
2022/10/30 02:05:37;;;;;;;8.73;4.47;;;;;;;19.72;60.75;101615.19;5065580;28;20048;-62
2022/10/30 02:08:03;;;;;;;5.90;3.97;;;;;;;19.72;60.77;101615.19;5045141;28;20033;-62
2022/10/30 02:10:29;;;;;;;7.85;4.55;;;;;;;19.68;60.31;101608.41;5046817;28;20078;-62
2022/10/30 02:12:54;;;;;;;5.80;4.30;;;;;;;19.56;60.51;101585.34;5047154;28;20026;-62
2022/10/30 02:15:20;;;;;;;5.82;3.60;;;;;;;19.71;60.66;101608.13;5066565;28;20028;-62
2022/10/30 02:17:45;;;;;;;5.30;3.78;;;;;;;19.71;60.65;101610.81;5066103;28;20358;-62
2022/10/30 02:20:17;;;;;;;4.80;3.53;;;;;;;19.70;60.29;101604.53;5081992;28;20120;-62
2022/10/30 02:22:43;;;;;;;5.88;4.25;;;;;;;19.67;60.31;101607.56;5064770;28;20021;-62
2022/10/30 02:25:08;;;;;;;6.20;3.55;;;;;;;19.42;60.48;101565.19;5066542;28;20080;-62
2022/10/30 02:27:33;;;;;;;6.00;4.13;;;;;;;19.69;60.63;101612.81;5065631;28;20029;-62
2022/10/30 02:29:59;;;;;;;7.05;4.20;;;;;;;19.65;60.17;101604.16;5066282;28;20032;-63
2022/10/30 02:32:24;;;;;;;5.80;4.30;;;;;;;19.59;60.35;101601.25;5066234;28;20025;-63
2022/10/30 02:34:50;;;;;;;6.53;4.35;;;;;;;19.68;60.15;101617.34;5066121;28;20081;-62
2022/10/30 02:37:15;;;;;;;4.85;3.50;;;;;;;19.67;60.30;101621.06;5065699;28;20020;-63
2022/10/30 02:39:40;;;;;;;5.88;4.40;;;;;;;19.58;60.31;101611.19;5066080;28;20050;-63
2022/10/30 02:42:06;;;;;;;6.38;3.97;;;;;;;19.67;60.43;101631.00;5065976;28;20029;-63
2022/10/30 02:44:31;;;;;;;5.60;4.53;;;;;;;18.94;60.39;101521.44;5066143;28;20060;-63
2022/10/30 02:46:56;;;;;;;5.82;4.18;;;;;;;19.66;60.45;101632.00;5065873;28;20028;-62
2022/10/30 02:49:22;;;;;;;6.05;4.13;;;;;;;19.66;60.40;101642.78;5066003;28;20021;-63
2022/10/30 02:51:47;;;;;;;4.72;3.72;;;;;;;19.55;60.12;101626.81;5065239;28;20032;-63
2022/10/30 02:54:12;;;;;;;6.07;3.88;;;;;;;19.65;60.36;101639.25;5064892;28;20043;-63
2022/10/30 02:56:40;;;;;;;5.85;4.13;;;;;;;19.63;60.21;101630.47;5065517;28;20032;-63
2022/10/30 02:59:05;;;;;;;5.50;3.83;;;;;;;19.61;60.14;101621.66;5065523;28;20024;-63
2022/10/30 03:01:31;;;;;;;6.55;3.47;;;;;;;19.65;60.48;101630.31;5065245;28;20072;-62
2022/10/30 03:03:56;;;;;;;6.90;4.05;;;;;;;19.64;60.08;101634.00;5065465;28;20055;-62
2022/10/30 03:06:21;;;;;;;6.97;4.18;;;;;;;19.64;60.11;101631.31;5065241;28;20044;-62
2022/10/30 03:08:47;;;;;;;6.35;3.88;;;;;;;19.62;60.48;101631.44;5065218;28;20029;-63
2022/10/30 03:11:16;;;;;;;5.70;3.88;;;;;;;19.52;60.27;101619.03;5065392;28;20057;-63
2022/10/30 03:13:43;;;;;;;4.60;3.72;;;;;;;19.51;60.50;101615.50;5056522;28;20043;-63
2022/10/30 03:16:11;;;;;;;6.47;3.90;;;;;;;19.58;60.23;101629.19;5064905;28;20036;-63
2022/10/30 03:18:36;;;;;;;4.57;3.63;;;;;;;19.51;60.43;101620.03;5065508;28;20051;-63
2022/10/30 03:21:03;;;;;;;7.40;4.03;;;;;;;19.60;60.20;101641.53;5065026;28;20045;-62
2022/10/30 03:23:29;;;;;;;5.05;3.33;;;;;;;19.54;60.18;101628.69;5065286;28;20029;-63
2022/10/30 03:25:56;;;;;;;5.32;3.55;;;;;;;19.61;60.26;101642.41;5063819;28;20028;-63
2022/10/30 03:28:22;;;;;;;5.68;4.05;;;;;;;19.60;60.17;101641.53;5064597;28;20025;-63
2022/10/30 03:30:48;;;;;;;7.28;4.38;;;;;;;19.60;60.24;101644.22;5065086;28;20021;-62
2022/10/30 03:33:13;;;;;;;4.47;3.63;;;;;;;19.60;60.13;101641.53;5064902;28;20079;-62
2022/10/30 03:35:38;;;;;;;5.57;4.13;;;;;;;19.59;60.09;101639.84;5065013;28;20037;-62
2022/10/30 03:38:04;;;;;;;5.47;3.58;;;;;;;19.59;60.25;101639.00;5064444;28;20481;-63
2022/10/30 03:40:29;;;;;;;7.68;3.95;;;;;;;19.59;60.38;101647.09;5065060;28;20021;-63
2022/10/30 03:42:54;;;;;;;5.15;3.45;;;;;;;19.59;60.27;101649.78;5064634;28;20029;-63
2022/10/30 03:45:19;;;;;;;5.47;3.60;;;;;;;19.55;60.18;101645.72;5065069;28;20036;-63
2022/10/30 03:47:44;;;;;;;4.68;3.55;;;;;;;19.52;60.09;101644.16;5044363;28;20033;-63
2022/10/30 03:50:10;;;;;;;7.22;3.72;;;;;;;19.57;60.43;101665.28;5044899;28;20056;-63
2022/10/30 03:52:35;;;;;;;4.40;3.38;;;;;;;19.56;60.22;101653.63;5044219;28;20732;-63
2022/10/30 03:55:00;;;;;;;5.40;3.70;;;;;;;19.57;60.42;101659.88;5044622;28;20053;-63
2022/10/30 03:57:25;;;;;;;6.55;4.07;;;;;;;19.56;59.99;101661.72;5044131;28;20026;-63
2022/10/30 03:59:51;;;;;;;4.85;3.22;;;;;;;19.55;60.04;101665.44;5044547;28;20025;-63
2022/10/30 04:02:16;;;;;;;6.43;3.97;;;;;;;19.56;60.30;101661.72;5044285;28;20084;-63
2022/10/30 04:04:41;;;;;;;5.20;3.65;;;;;;;19.54;60.19;101657.47;5060262;28;20036;-63
2022/10/30 04:07:06;;;;;;;6.60;3.58;;;;;;;19.55;60.06;101656.50;5063845;28;20024;-63
2022/10/30 04:09:32;;;;;;;5.50;3.47;;;;;;;19.55;60.45;101653.81;5064252;28;20033;-63
2022/10/30 04:11:57;;;;;;;4.40;3.47;;;;;;;19.46;60.13;101645.63;5064068;28;20029;-63
2022/10/30 04:14:22;;;;;;;4.88;3.45;;;;;;;19.52;60.21;101654.94;5049864;28;20017;-63
2022/10/30 04:16:47;;;;;;;5.55;4.15;;;;;;;19.53;60.24;101659.31;5044095;28;20036;-63
2022/10/30 04:19:13;;;;;;;6.30;3.88;;;;;;;19.53;60.08;101659.31;5043127;28;20581;-63
2022/10/30 04:21:38;;;;;;;4.30;3.28;;;;;;;19.31;60.06;101611.25;5043491;28;20033;-63
2022/10/30 04:24:03;;;;;;;4.72;3.67;;;;;;;19.20;60.36;101610.50;5044256;28;20068;-63
2022/10/30 04:26:29;;;;;;;4.78;3.45;;;;;;;19.24;59.99;101611.00;5044299;28;20021;-63
2022/10/30 04:28:54;;;;;;;5.13;3.83;;;;;;;19.52;60.08;101656.81;5043610;28;20519;-64
2022/10/30 04:31:19;;;;;;;5.10;3.55;;;;;;;19.51;60.16;101657.81;5044247;28;20029;-63
2022/10/30 04:33:44;;;;;;;5.40;3.78;;;;;;;19.49;59.79;101661.47;5051625;28;20413;-63
2022/10/30 04:36:10;;;;;;;4.68;3.55;;;;;;;19.43;60.09;101635.13;5063525;28;20021;-63
2022/10/30 04:38:35;;;;;;;5.70;3.67;;;;;;;19.50;60.25;101651.56;5063625;28;20028;-63
2022/10/30 04:41:00;;;;;;;5.60;3.33;;;;;;;19.50;60.16;101656.97;5063788;28;20029;-63
2022/10/30 04:43:25;;;;;;;5.00;3.78;;;;;;;19.49;60.27;101653.38;5063039;28;20035;-63
2022/10/30 04:45:51;;;;;;;5.10;3.20;;;;;;;19.48;60.38;101654.41;5063810;28;20021;-63
2022/10/30 04:48:17;;;;;;;5.43;3.88;;;;;;;19.48;59.98;101667.03;5063597;28;20517;-63
2022/10/30 04:50:43;;;;;;;5.97;4.10;;;;;;;19.48;60.10;101661.66;5063660;28;20021;-63
2022/10/30 04:53:18;;;;;;;5.13;3.63;;;;;;;19.47;59.88;101662.66;5060230;28;20464;-62
2022/10/30 04:55:43;;;;;;;5.47;3.33;;;;;;;19.32;60.12;101640.75;5062520;28;20021;-63
2022/10/30 04:58:09;;;;;;;6.28;4.07;;;;;;;19.46;59.93;101661.81;5063159;28;20040;-63
2022/10/30 05:00:34;;;;;;;4.97;3.58;;;;;;;19.46;60.08;101660.97;5063255;28;20056;-62
2022/10/30 05:03:00;;;;;;;5.18;3.33;;;;;;;19.45;59.85;101660.13;5063084;28;20032;-62
2022/10/30 05:05:26;;;;;;;5.15;3.72;;;;;;;19.44;59.87;101655.72;5063063;28;20021;-63
2022/10/30 05:07:51;;;;;;;5.22;3.50;;;;;;;19.44;59.87;101647.63;5059712;28;20032;-63
2022/10/30 05:10:17;;;;;;;4.40;3.15;;;;;;;19.42;60.21;101638.00;5063271;28;20085;-62
2022/10/30 05:12:43;;;;;;;4.47;3.47;;;;;;;19.44;59.93;101647.63;5063078;28;20036;-63
2022/10/30 05:15:09;;;;;;;3.95;2.80;;;;;;;19.43;60.01;101645.94;5063205;28;20036;-62
2022/10/30 05:17:34;;;;;;;4.75;3.20;;;;;;;19.43;60.20;101653.19;5068141;28;20021;-62
2022/10/30 05:19:59;;;;;;;4.78;2.95;;;;;;;19.39;60.09;101638.31;5069858;28;20031;-62
2022/10/30 05:22:25;;;;;;;6.28;3.78;;;;;;;19.41;60.21;101637.16;5069455;28;20049;-63
2022/10/30 05:24:50;;;;;;;5.03;3.85;;;;;;;19.41;59.81;101636.28;5067246;28;20616;-63
2022/10/30 05:27:15;;;;;;;5.25;3.50;;;;;;;19.40;59.91;101635.44;5069605;28;20130;-63
2022/10/30 05:29:40;;;;;;;4.78;2.95;;;;;;;19.41;59.90;101634.47;5069765;28;20070;-63
2022/10/30 05:32:06;;;;;;;4.50;3.00;;;;;;;19.41;60.10;101639.84;5069681;28;20029;-62
2022/10/30 05:34:31;;;;;;;7.57;3.72;;;;;;;19.40;59.77;101635.44;5055719;28;20033;-62
2022/10/30 05:36:56;;;;;;;4.50;2.95;;;;;;;19.35;59.88;101620.75;5068686;28;20463;-62
2022/10/30 05:39:21;;;;;;;3.90;3.17;;;;;;;19.36;60.05;101625.13;5069272;28;20017;-63
2022/10/30 05:41:47;;;;;;;5.15;3.08;;;;;;;19.38;59.91;101639.31;5069503;28;20057;-62
2022/10/30 05:44:12;;;;;;;4.18;2.85;;;;;;;19.40;59.96;101653.47;5069221;28;20033;-62
2022/10/30 05:46:37;;;;;;;5.43;3.05;;;;;;;19.40;60.09;101648.94;5069822;28;20033;-62
2022/10/30 05:49:02;;;;;;;4.40;3.03;;;;;;;19.40;60.09;101648.94;5069626;28;20029;-62
2022/10/30 05:51:28;;;;;;;3.58;2.90;;;;;;;19.28;59.88;101625.03;5069168;28;20029;-62
2022/10/30 05:53:53;;;;;;;5.75;3.15;;;;;;;19.41;60.11;101638.97;5069167;28;20539;-62
2022/10/30 05:56:18;;;;;;;4.15;3.13;;;;;;;19.41;60.29;101642.56;5069592;28;20641;-62
2022/10/30 05:58:44;;;;;;;4.97;3.42;;;;;;;19.41;60.18;101644.38;5069234;28;20488;-62
2022/10/30 06:01:09;;;;;;;4.50;3.30;;;;;;;19.38;60.29;101634.75;5069157;28;20052;-62
2022/10/30 06:03:34;;;;;;;3.97;3.17;;;;;;;19.38;59.82;101647.41;5068919;28;20072;-62
2022/10/30 06:05:59;;;;;;;7.60;3.33;;;;;;;19.41;60.36;101649.78;5069000;28;20039;-62
2022/10/30 06:08:26;;;;;;;6.60;3.17;;;;;;;19.39;60.32;101657.19;5060063;28;20075;-62
2022/10/30 06:10:53;;;;;;;4.18;2.50;;;;;;;19.41;59.97;101652.47;5069130;28;20041;-62
2022/10/30 06:13:18;;;;;;;3.83;3.38;;;;;;;19.41;59.91;101656.03;5068608;28;20043;-61
2022/10/30 06:15:44;;;;;;;3.78;3.10;;;;;;;19.41;60.15;101658.75;5069245;28;20037;-62
2022/10/30 06:18:09;;;;;;;4.20;3.10;;;;;;;19.42;60.21;101667.66;5068490;28;20028;-61
2022/10/30 06:20:34;;;;;;;4.90;3.17;;;;;;;19.41;60.17;101665.94;5069302;28;20032;-62
2022/10/30 06:23:01;;;;;;;3.80;3.30;;;;;;;19.41;60.05;101680.31;5067651;28;20068;-62
2022/10/30 06:25:28;;;;;;;4.03;3.03;;;;;;;19.43;60.02;101674.75;5068894;28;20028;-62
2022/10/30 06:27:54;;;;;;;4.32;3.42;;;;;;;19.41;60.19;101682.13;5062912;28;20029;-61
2022/10/30 06:30:20;;;;;;;5.63;3.38;;;;;;;19.43;60.49;101681.00;5061930;28;20075;-62
2022/10/30 06:32:46;;;;;;;5.65;3.15;;;;;;;19.41;60.51;101669.53;5062896;28;20042;-60
2022/10/30 06:35:11;;;;;;;6.30;3.40;;;;;;;19.40;60.23;101669.66;5054328;28;20052;-58
2022/10/30 06:37:39;;;;;;;4.88;3.30;;;;;;;19.43;60.31;101666.66;5059021;28;20417;-63
2022/10/30 06:40:06;;;;;;;5.68;2.97;;;;;;;19.42;60.70;101670.38;5061838;28;20043;-65
2022/10/30 06:42:31;;;;;;;7.03;3.40;;;;;;;19.39;60.58;101674.22;5057721;28;20102;-65
2022/10/30 06:44:56;;;;;;;7.60;3.42;;;;;;;19.42;60.27;101671.22;5065057;28;20032;-64
2022/10/30 06:47:22;;;;;;;5.68;3.38;;;;;;;19.41;60.51;101658.75;5064965;28;20021;-63
2022/10/30 06:49:47;;;;;;;5.05;4.15;;;;;;;19.41;60.28;101664.13;5062486;28;20013;-63
2022/10/30 06:52:12;;;;;;;3.60;3.03;;;;;;;19.41;60.00;101658.75;5044992;28;20040;-64
2022/10/30 06:54:37;;;;;;;4.07;3.13;;;;;;;19.41;60.23;101666.81;5054416;28;20031;-64
2022/10/30 06:57:03;;;;;;;5.05;2.95;;;;;;;19.41;60.25;101656.03;5064765;28;20037;-63
2022/10/30 06:59:28;;;;;;;4.55;3.13;;;;;;;19.41;60.58;101656.03;5064893;28;20719;-64
2022/10/30 07:01:53;;;;;;;4.30;2.88;;;;;;;19.37;60.31;101651.06;5064523;28;20052;-64
2022/10/30 07:04:19;;;;;;;6.25;3.35;;;;;;;19.42;60.30;101662.28;5057836;28;20038;-64
2022/10/30 07:06:44;;;;;;;4.90;3.42;;;;;;;19.40;60.45;101650.78;5045239;28;20025;-64
2022/10/30 07:09:09;;;;;;;4.50;3.10;;;;;;;19.42;60.24;101651.50;5058804;28;20060;-64
2022/10/30 07:11:35;;;;;;;4.22;3.08;;;;;;;19.43;60.38;101648.63;5064897;28;20032;-64
2022/10/30 07:14:00;;;;;;;6.43;2.95;;;;;;;19.44;60.32;101646.78;5064765;28;20080;-64
2022/10/30 07:16:26;;;;;;;5.63;3.40;;;;;;;19.43;60.07;101643.22;5064826;28;20028;-64
2022/10/30 07:18:51;;;;;;;5.13;3.03;;;;;;;19.43;60.54;101632.44;5053089;28;20029;-65
2022/10/30 07:21:16;;;;;;;5.90;3.72;;;;;;;19.43;60.16;101629.75;5059863;28;20502;-65
2022/10/30 07:23:42;;;;;;;4.63;2.97;;;;;;;19.44;60.32;101630.59;5064000;28;20055;-64
2022/10/30 07:26:07;;;;;;;7.95;4.28;;;;;;;19.42;60.34;101628.06;5064616;28;20020;-64
2022/10/30 07:28:32;;;;;;;5.70;3.53;;;;;;;19.39;60.26;101631.06;5064247;28;20083;-61
2022/10/30 07:30:58;;;;;;;5.57;3.50;;;;;;;19.34;60.04;101624.44;5064610;28;20029;-64
2022/10/30 07:33:24;;;;;;;4.05;3.30;;;;;;;18.63;60.15;101503.94;5064194;28;20044;-64
2022/10/30 07:35:49;;;;;;;7.47;4.20;;;;;;;19.42;59.94;101640.69;5048138;28;20029;-64
2022/10/30 07:38:16;;;;;;;6.45;4.20;;;;;;;19.41;59.76;101644.38;5056214;28;20079;-65
2022/10/30 07:40:41;;;;;;;6.55;4.00;;;;;;;19.35;59.89;101642.31;5054809;28;20025;-65
2022/10/30 07:43:09;;;;;;;5.60;3.85;;;;;;;19.44;60.05;101655.72;5050418;28;20055;-65
2022/10/30 07:45:34;;;;;;;5.30;4.22;;;;;;;19.34;59.60;101636.06;5061094;28;20033;-63
2022/10/30 07:47:59;;;;;;;5.07;3.83;;;;;;;19.48;59.56;101657.09;5048721;28;20064;-63
2022/10/30 07:50:25;;;;;;;6.20;4.55;;;;;;;19.52;59.31;101667.59;5064390;28;20028;-64
2022/10/30 07:52:50;;;;;;;5.35;3.80;;;;;;;19.54;59.23;101671.84;5051422;28;20029;-65
2022/10/30 07:55:15;;;;;;;7.68;4.90;;;;;;;19.54;59.23;101666.44;5074770;28;20547;-64
2022/10/30 07:57:41;;;;;;;4.93;3.50;;;;;;;19.59;59.23;101661.44;5047070;28;20116;-64
2022/10/30 08:00:11;;;;;;;7.07;3.95;;;;;;;19.54;59.21;101652.09;5058030;28;20121;-64
2022/10/30 08:02:37;;;;;;;7.80;4.18;;;;;;;19.61;59.17;101672.09;5053578;28;20071;-64
2022/10/30 08:05:03;;;;;;;4.80;4.32;;;;;;;19.59;59.10;101666.81;5064130;28;20033;-64
2022/10/30 08:07:33;;;;;;;4.75;4.25;;;;;;;19.58;59.33;101662.44;5063256;28;20021;-60
2022/10/30 08:09:58;;;;;;;5.70;3.97;;;;;;;19.60;59.31;101668.50;5058145;28;20037;-60
2022/10/30 08:12:24;;;;;;;7.30;4.20;;;;;;;19.60;59.20;101673.91;5051616;28;20037;-61
2022/10/30 08:14:49;;;;;;;6.30;4.07;;;;;;;19.60;58.95;101668.50;5062946;28;20025;-59
2022/10/30 08:17:15;;;;;;;5.13;4.05;;;;;;;19.63;59.13;101665.53;5063258;28;20138;-60
2022/10/30 08:19:40;;;;;;;5.25;3.85;;;;;;;19.62;59.53;101661.13;5046776;28;20026;-61
2022/10/30 08:22:05;;;;;;;7.85;4.30;;;;;;;19.64;59.20;101658.28;5057647;28;20025;-60
2022/10/30 08:24:31;;;;;;;5.75;4.28;;;;;;;19.63;59.04;101664.69;5051972;28;20036;-65
2022/10/30 08:26:56;;;;;;;7.05;4.32;;;;;;;19.62;59.15;101655.72;5050882;28;20021;-60
2022/10/30 08:29:21;;;;;;;6.28;4.65;;;;;;;19.57;59.43;101643.69;5058653;28;20025;-60
2022/10/30 08:31:47;;;;;;;7.75;4.25;;;;;;;19.52;59.51;101637.91;5059996;28;20039;-61
2022/10/30 08:34:13;;;;;;;7.15;4.80;;;;;;;19.61;59.23;101648.66;5047751;28;20021;-61
2022/10/30 08:36:38;;;;;;;4.90;3.97;;;;;;;19.62;59.43;101650.34;5068024;28;20516;-61
2022/10/30 08:39:03;;;;;;;6.57;4.35;;;;;;;19.55;59.37;101635.75;5049832;28;20029;-64
2022/10/30 08:41:28;;;;;;;5.00;3.92;;;;;;;19.63;59.50;101640.41;5060141;28;20090;-63
2022/10/30 08:43:54;;;;;;;7.93;4.05;;;;;;;19.67;59.32;101644.50;5053323;28;20033;-62
2022/10/30 08:46:19;;;;;;;5.88;4.53;;;;;;;19.69;59.01;101645.19;5055666;28;20025;-63
2022/10/30 08:48:44;;;;;;;7.65;4.43;;;;;;;19.70;59.23;101650.41;5051374;28;20032;-61
2022/10/30 08:51:09;;;;;;;10.70;5.22;;;;;;;19.70;59.14;101647.72;5056537;28;20036;-60
2022/10/30 08:53:35;;;;;;;7.25;4.18;;;;;;;19.74;59.23;101656.34;5045685;28;20060;-60
2022/10/30 08:56:00;;;;;;;5.78;4.50;;;;;;;19.72;59.35;101645.72;5055453;28;20028;-61
2022/10/30 08:58:25;;;;;;;6.60;5.00;;;;;;;19.77;58.90;101653.34;5060714;28;20027;-62
2022/10/30 09:00:50;;;;;;;8.38;5.20;;;;;;;19.73;58.86;101639.31;5052995;28;20132;-63
2022/10/30 09:03:16;;;;;;;7.85;5.40;;;;;;;19.78;58.81;101638.84;5055431;28;20052;-63
2022/10/30 09:05:41;;;;;;;6.93;5.50;;;;;;;19.79;58.61;101631.59;5059390;28;20052;-62
2022/10/30 09:08:06;;;;;;;7.60;5.18;;;;;;;19.80;58.58;101636.00;5042507;28;20029;-62
2022/10/30 09:10:32;;;;;;;9.38;4.20;;;;;;;19.81;59.02;101627.75;5054162;28;20032;-63
2022/10/30 09:12:58;;;;;;;8.18;4.72;;;;;;;19.81;58.77;101624.19;5056750;28;20649;-63
2022/10/30 09:15:23;;;;;;;8.40;5.40;;;;;;;19.78;58.82;101625.34;5062924;28;20029;-61
2022/10/30 09:17:59;;;;;;;7.43;4.78;;;;;;;19.83;58.71;101630.28;5048856;28;20048;-65
2022/10/30 09:20:25;;;;;;;7.57;5.03;;;;;;;19.82;58.93;101644.78;5054866;28;20124;-61
2022/10/30 09:22:50;;;;;;;6.75;4.53;;;;;;;19.84;58.64;101640.94;5054097;28;20028;-61
2022/10/30 09:25:16;;;;;;;8.90;5.85;;;;;;;19.87;58.75;101650.53;5061392;28;20029;-61
2022/10/30 09:27:41;;;;;;;8.70;5.50;;;;;;;19.89;58.86;101643.16;5061910;28;20036;-61
2022/10/30 09:30:07;;;;;;;9.13;5.00;;;;;;;19.90;58.61;101652.94;5057038;28;20026;-62
2022/10/30 09:32:32;;;;;;;8.35;4.93;;;;;;;19.91;58.65;101641.97;5051939;28;20092;-61
2022/10/30 09:34:58;;;;;;;7.15;4.85;;;;;;;19.93;58.75;101639.13;5050163;28;20059;-60
2022/10/30 09:37:23;;;;;;;9.18;4.90;;;;;;;19.93;58.80;101642.69;5058546;28;20063;-62
2022/10/30 09:39:48;;;;;;;6.07;4.45;;;;;;;19.88;58.62;101636.03;5046061;28;20048;-60
2022/10/30 09:42:24;;;;;;;7.15;4.55;;;;;;;19.94;58.59;101648.91;5055938;28;20032;-62
2022/10/30 09:45:10;;;;;;;7.03;5.07;;;;;;;19.96;58.56;101646.91;5052748;28;20039;-62
2022/10/30 09:47:56;;;;;;;10.75;5.78;;;;;;;19.97;58.32;101646.75;5045855;28;20096;-59
2022/10/30 09:50:25;;;;;;;6.75;4.32;;;;;;;19.98;58.50;101653.00;5055167;28;20022;-61
2022/10/30 09:53:14;;;;;;;6.20;4.57;;;;;;;19.98;58.55;101653.84;5060566;28;20060;-62
2022/10/30 09:55:39;;;;;;;7.70;4.60;;;;;;;19.98;58.45;101653.00;5055013;28;20071;-62
2022/10/30 09:58:14;;;;;;;7.63;5.20;;;;;;;20.00;58.46;101650.13;5056960;28;20017;-61
2022/10/30 10:01:03;;;;;;;9.05;5.03;;;;;;;20.00;58.47;101650.13;5050572;28;20057;-64
2022/10/30 10:03:48;;;;;;;6.28;4.68;;;;;;;19.99;58.57;101652.00;5046819;28;20021;-61
2022/10/30 10:06:18;;;;;;;10.18;5.65;;;;;;;20.00;58.61;101645.56;5058243;28;20022;-61
2022/10/30 10:08:48;;;;;;;8.30;5.13;;;;;;;20.00;58.25;101640.19;5046246;28;20044;-65
2022/10/30 10:11:16;;;;;;;6.25;5.00;;;;;;;19.99;58.37;101633.09;5059817;28;20031;-62
2022/10/30 10:13:49;;;;;;;6.03;4.65;;;;;;;20.01;58.54;101635.63;5071147;28;20500;-64
2022/10/30 10:16:19;;;;;;;7.53;4.93;;;;;;;20.01;58.44;101639.19;5059670;28;20043;-65
2022/10/30 10:18:47;;;;;;;7.68;5.30;;;;;;;20.02;58.33;101643.59;5054699;28;20025;-60
2022/10/30 10:21:18;;;;;;;8.85;5.28;;;;;;;19.98;58.40;101637.66;5060230;28;20028;-62
2022/10/30 10:23:48;;;;;;;6.63;4.63;;;;;;;20.03;58.59;101645.28;5062435;28;20036;-68
2022/10/30 10:26:36;;;;;;;7.05;5.30;;;;;;;20.05;58.12;101643.28;5065701;28;20493;-67
2022/10/30 10:29:25;;;;;;;7.57;4.65;;;;;;;20.07;58.11;101645.81;5059943;28;20044;-67
2022/10/30 10:32:07;;;;;;;7.80;5.32;;;;;;;20.06;58.31;101646.81;5065001;28;20032;-67
2022/10/30 10:34:38;;;;;;;7.43;4.47;;;;;;;20.08;58.18;101658.28;5062489;28;20214;-67
2022/10/30 10:37:16;;;;;;;8.27;5.07;;;;;;;20.09;58.10;101663.56;5063182;28;20041;-68
2022/10/30 10:39:58;;;;;;;6.03;4.70;;;;;;;20.09;58.46;101668.94;5066138;28;20052;-60
2022/10/30 10:42:40;;;;;;;6.68;4.95;;;;;;;20.11;58.24;101669.63;5047262;28;20060;-59
2022/10/30 10:45:19;;;;;;;10.43;4.75;;;;;;;20.12;58.75;101665.91;5045142;28;20037;-65
2022/10/30 10:47:58;;;;;;;7.15;5.53;;;;;;;20.13;58.63;101664.91;5060385;28;20033;-65
2022/10/30 10:50:27;;;;;;;7.93;4.85;;;;;;;20.16;58.64;101664.59;5044095;28;20025;-65
2022/10/30 10:52:59;;;;;;;7.32;5.75;;;;;;;20.18;58.71;101667.16;5045180;28;20175;-64
2022/10/30 10:55:27;;;;;;;8.45;4.82;;;;;;;20.21;58.63;101664.13;5054402;28;20029;-65
2022/10/30 10:57:57;;;;;;;6.10;4.33;;;;;;;20.24;59.07;101658.41;5065244;28;20036;-65
2022/10/30 11:00:23;;;;;;;7.05;5.03;;;;;;;20.29;58.68;101655.22;5044098;28;20533;-66
2022/10/30 11:02:58;;;;;;;5.30;4.18;;;;;;;20.32;58.65;101658.47;5045402;28;20028;-66
2022/10/30 11:05:37;;;;;;;5.63;3.50;;;;;;;20.36;58.62;101659.00;5043864;28;20038;-66
2022/10/30 11:08:26;;;;;;;;;;;;;;;20.39;58.82;101655.94;5063482;28;20039;-66
2022/10/30 11:11:09;;;;;;;6.38;4.45;;;;;;;20.39;58.62;101656.81;5054398;28;19919;-65
2022/10/30 11:13:37;;;;;;;5.75;4.18;;;;;;;20.39;58.64;101645.13;5065000;28;20037;-66
2022/10/30 11:16:12;;;;;;;6.63;4.53;;;;;;;20.38;58.94;101647.00;5061465;28;20043;-65
2022/10/30 11:18:37;;;;;;;8.13;4.60;;;;;;;20.37;59.37;101639.91;5064956;28;20585;-66
2022/10/30 11:21:07;;;;;;;8.45;5.30;;;;;;;20.36;59.36;101643.63;5063284;28;20048;-66
2022/10/30 11:23:41;;;;;;;7.10;4.43;;;;;;;20.36;59.23;101635.53;5063326;28;20021;-66
2022/10/30 11:26:21;;;;;;;6.28;4.20;;;;;;;20.35;59.14;101631.13;5063919;28;20021;-66
2022/10/30 11:29:12;;;;;;;6.43;4.80;;;;;;;20.35;59.37;101623.03;5064318;28;20783;-66